Time;durP1;ratioP1;P1;durP2;ratioP2;P2;SDS_P1;SDS_P2;PMS_P1;PMS_P2;Temp;Humidity;BMP_temperature;BMP_pressure;BME280_temperature;BME280_humidity;BME280_pressure;Samples;Min_cycle;Max_cycle;Signal;HPM_P1;HPM_P2
2022/04/13 00:00:08;;;;;;;10.05;5.80;;;;;;;8.80;51.20;100078.56;5050797;28;20443;-48
2022/04/13 00:02:33;;;;;;;6.75;5.07;;;;;;;9.12;49.82;100074.69;5050387;28;20116;-48
2022/04/13 00:04:59;;;;;;;6.97;5.03;;;;;;;9.22;49.94;100077.06;5049747;28;20136;-48
2022/04/13 00:07:24;;;;;;;8.20;4.95;;;;;;;9.10;49.52;100075.88;5050495;28;20025;-47
2022/04/13 00:09:50;;;;;;;7.82;5.15;;;;;;;9.06;50.23;100072.75;5050237;28;20421;-47
2022/04/13 00:12:15;;;;;;;6.03;4.85;;;;;;;9.04;49.88;100073.97;5050563;28;20052;-48
2022/04/13 00:14:41;;;;;;;5.82;4.53;;;;;;;9.36;49.21;100070.06;5050766;28;20040;-49
2022/04/13 00:17:07;;;;;;;6.05;4.68;;;;;;;9.13;49.85;100064.91;5050725;28;20028;-49
2022/04/13 00:19:32;;;;;;;6.95;4.88;;;;;;;9.41;48.75;100066.84;5050312;28;20459;-48
2022/04/13 00:21:58;;;;;;;7.70;4.80;;;;;;;9.30;48.93;100068.16;5049855;28;20029;-48
2022/04/13 00:24:23;;;;;;;5.85;4.57;;;;;;;9.05;48.81;100060.50;5049728;28;20567;-47
2022/04/13 00:26:49;;;;;;;10.52;4.90;;;;;;;9.42;48.40;100071.97;5050193;28;20055;-46
2022/04/13 00:29:14;;;;;;;7.20;4.97;;;;;;;9.02;49.78;100076.81;5050883;28;20024;-46
2022/04/13 00:31:40;;;;;;;6.32;4.53;;;;;;;9.17;49.55;100066.16;5050269;28;20031;-47
2022/04/13 00:34:05;;;;;;;7.43;4.60;;;;;;;8.15;50.32;100054.34;5050434;28;20025;-47
2022/04/13 00:36:31;;;;;;;5.80;4.10;;;;;;;8.72;50.03;100066.22;5050398;28;20025;-48
2022/04/13 00:38:56;;;;;;;7.72;4.25;;;;;;;8.94;50.01;100063.63;5050902;28;20044;-47
2022/04/13 00:41:22;;;;;;;6.18;4.18;;;;;;;9.14;48.70;100066.56;5050790;28;20490;-48
2022/04/13 00:44:07;;;;;;;5.72;4.03;;;;;;;9.43;48.53;100065.66;5051111;28;20025;-47
2022/04/13 00:46:33;;;;;;;7.10;4.13;;;;;;;9.65;47.78;100065.66;5050863;28;20025;-48
2022/04/13 00:49:00;;;;;;;6.25;4.22;;;;;;;9.69;47.90;100059.78;5051207;28;20025;-47
2022/04/13 00:51:26;;;;;;;6.90;4.40;;;;;;;9.93;47.23;100061.22;5050748;28;20102;-47
2022/04/13 00:53:52;;;;;;;6.18;4.00;;;;;;;9.98;47.40;100064.13;5051279;28;20028;-50
2022/04/13 00:56:24;;;;;;;5.38;4.22;;;;;;;10.14;47.81;100067.53;5051208;28;20077;-51
2022/04/13 00:58:54;;;;;;;6.63;4.50;;;;;;;9.80;48.02;100066.41;5051260;28;20076;-52
2022/04/13 01:01:22;;;;;;;7.03;4.63;;;;;;;9.92;47.84;100064.09;5051417;28;20047;-48
2022/04/13 01:03:51;;;;;;;6.97;4.88;;;;;;;9.98;48.08;100065.97;5050695;28;20029;-47
2022/04/13 01:06:18;;;;;;;7.93;4.85;;;;;;;10.05;47.91;100058.88;5051088;28;20029;-56
2022/04/13 01:08:48;;;;;;;8.85;4.57;;;;;;;10.11;47.59;100058.09;5049909;28;20049;-48
2022/04/13 01:11:14;;;;;;;9.98;5.00;;;;;;;10.16;47.37;100060.19;5049830;28;20426;-47
2022/04/13 01:13:40;;;;;;;8.48;4.60;;;;;;;9.97;48.28;100059.81;5049542;28;20033;-48
2022/04/13 01:16:06;;;;;;;11.98;5.50;;;;;;;10.01;48.16;100070.06;5051703;28;20036;-47
2022/04/13 01:18:32;;;;;;;11.65;4.90;;;;;;;9.86;49.28;100055.03;5053843;28;20074;-49
2022/04/13 01:21:00;;;;;;;7.03;5.00;;;;;;;9.92;48.55;100058.78;5054011;28;20017;-48
2022/04/13 01:23:26;;;;;;;7.60;4.90;;;;;;;9.78;48.86;100063.13;5053767;28;20500;-50
2022/04/13 01:25:52;;;;;;;7.07;5.20;;;;;;;9.79;48.88;100054.97;5054461;28;20029;-50
2022/04/13 01:28:18;;;;;;;9.45;4.80;;;;;;;9.87;48.52;100058.50;5054496;28;20108;-48
2022/04/13 01:30:44;;;;;;;7.53;5.45;;;;;;;9.78;48.71;100061.28;5053749;28;20099;-49
2022/04/13 01:33:09;;;;;;;8.85;5.50;;;;;;;9.62;48.72;100058.91;5053670;28;20338;-48
2022/04/13 01:35:35;;;;;;;11.95;5.32;;;;;;;9.68;48.14;100058.13;5052853;28;20457;-48
2022/04/13 01:38:00;;;;;;;10.98;5.57;;;;;;;9.77;48.53;100049.03;5053345;28;20575;-47
2022/04/13 01:40:26;;;;;;;8.77;5.50;;;;;;;9.90;48.25;100060.78;5053464;28;20090;-48
2022/04/13 01:42:51;;;;;;;11.23;5.25;;;;;;;9.91;48.30;100054.47;5053410;28;20032;-47
2022/04/13 01:45:20;;;;;;;7.85;5.45;;;;;;;9.95;48.26;100055.72;5052781;28;20317;-48
2022/04/13 01:47:49;;;;;;;8.32;5.68;;;;;;;9.85;48.90;100055.22;5053311;28;20716;-48
2022/04/13 01:50:19;;;;;;;10.00;5.50;;;;;;;9.74;49.46;100043.25;5053186;28;20484;-47
2022/04/13 01:52:49;;;;;;;10.63;6.43;;;;;;;9.59;49.68;100033.53;5053052;28;20058;-50
2022/04/13 01:55:15;;;;;;;10.55;5.82;;;;;;;9.90;49.12;100047.47;5052855;28;20029;-48
2022/04/13 01:57:41;;;;;;;11.00;6.22;;;;;;;9.91;49.21;100041.97;5052952;28;20079;-48
2022/04/13 02:00:09;;;;;;;10.02;6.20;;;;;;;10.08;48.46;100052.34;5053303;28;20037;-47
2022/04/13 02:02:35;;;;;;;10.48;5.90;;;;;;;10.02;49.11;100047.81;5053099;28;20112;-47
2022/04/13 02:05:01;;;;;;;11.63;6.32;;;;;;;9.86;49.28;100040.91;5052906;28;20162;-47
2022/04/13 02:07:27;;;;;;;10.75;6.53;;;;;;;9.72;49.39;100054.06;5052387;28;20033;-47
2022/04/13 02:09:54;;;;;;;10.00;6.35;;;;;;;9.66;49.80;100056.69;5053304;28;20025;-50
2022/04/13 02:12:20;;;;;;;11.15;6.22;;;;;;;9.75;49.26;100058.22;5053185;28;20031;-37
2022/04/13 02:14:45;;;;;;;12.13;6.82;;;;;;;9.54;49.55;100059.84;5052867;28;20017;-37
2022/04/13 02:17:14;;;;;;;10.43;6.10;;;;;;;9.43;50.14;100062.19;5052482;28;20025;-37
2022/04/13 02:19:40;;;;;;;11.80;6.30;;;;;;;9.55;49.82;100063.31;5052603;28;20023;-37
2022/04/13 02:22:08;;;;;;;10.98;6.57;;;;;;;9.63;49.60;100068.50;5052478;28;20131;-37
2022/04/13 02:24:38;;;;;;;9.52;6.57;;;;;;;9.65;49.96;100063.00;5052249;28;20135;-37
2022/04/13 02:27:03;;;;;;;;;;;;;;;9.94;49.47;100065.53;5052230;28;20453;-37
2022/04/13 02:29:29;;;;;;;11.02;6.47;;;;;;;9.74;49.57;100061.88;5052371;28;19971;-37
2022/04/13 02:31:54;;;;;;;10.57;6.13;;;;;;;9.63;50.25;100057.88;5052329;28;20087;-37
2022/04/13 02:34:20;;;;;;;11.02;6.35;;;;;;;9.32;51.28;100058.97;5052365;28;20036;-37
2022/04/13 02:36:45;;;;;;;10.90;6.55;;;;;;;9.41;50.50;100059.72;5052657;28;20016;-37
2022/04/13 02:39:11;;;;;;;9.15;6.20;;;;;;;9.25;50.61;100057.28;5052005;28;20078;-38
2022/04/13 02:41:36;;;;;;;10.60;6.60;;;;;;;9.13;51.18;100059.59;5052180;28;20024;-37
2022/04/13 02:44:02;;;;;;;9.20;6.00;;;;;;;9.18;50.69;100054.56;5052174;28;20096;-37
2022/04/13 02:46:27;;;;;;;10.23;6.47;;;;;;;8.89;51.82;100058.91;5052073;28;20055;-37
2022/04/13 02:48:53;;;;;;;10.18;6.32;;;;;;;8.68;51.62;100045.53;5051814;28;20370;-37
2022/04/13 02:51:18;;;;;;;12.05;6.10;;;;;;;8.77;51.30;100050.56;5052105;28;20024;-37
2022/04/13 02:53:44;;;;;;;9.98;6.60;;;;;;;8.97;51.11;100050.00;5052088;28;20056;-37
2022/04/13 02:56:09;;;;;;;10.23;6.30;;;;;;;9.08;50.71;100046.03;5051464;28;20025;-37
2022/04/13 02:58:35;;;;;;;9.70;6.43;;;;;;;9.02;51.08;100046.78;5051829;28;20025;-37
2022/04/13 03:01:03;;;;;;;9.45;6.38;;;;;;;9.13;50.57;100048.97;5051705;28;20112;-37
2022/04/13 03:03:29;;;;;;;10.07;6.60;;;;;;;9.11;50.46;100040.38;5051883;28;20433;-37
2022/04/13 03:05:54;;;;;;;11.77;6.50;;;;;;;9.09;50.53;100042.38;5051831;28;20049;-37
2022/04/13 03:08:20;;;;;;;13.35;6.65;;;;;;;9.09;50.35;100045.03;5051633;28;20052;-37
2022/04/13 03:10:46;;;;;;;13.05;6.55;;;;;;;8.84;51.05;100039.22;5051374;28;20591;-37
2022/04/13 03:13:11;;;;;;;10.77;6.22;;;;;;;8.89;51.38;100042.97;5051554;28;20032;-37
2022/04/13 03:15:36;;;;;;;10.20;6.80;;;;;;;9.05;50.94;100052.56;5051497;28;20396;-37
2022/04/13 03:18:02;;;;;;;11.13;7.00;;;;;;;9.07;50.56;100047.06;5051643;28;20024;-37
2022/04/13 03:20:27;;;;;;;10.85;6.45;;;;;;;9.06;50.43;100048.88;5051753;28;20085;-37
2022/04/13 03:22:53;;;;;;;11.00;6.85;;;;;;;8.98;50.30;100043.69;5051470;28;20078;-37
2022/04/13 03:25:18;;;;;;;9.85;6.75;;;;;;;9.00;51.08;100046.97;5051193;28;20082;-37
2022/04/13 03:27:44;;;;;;;9.57;6.90;;;;;;;9.01;51.10;100048.63;5051435;28;20094;-37
2022/04/13 03:30:13;;;;;;;10.95;7.32;;;;;;;9.03;51.02;100051.09;5050919;28;20083;-37
2022/04/13 03:32:39;;;;;;;21.55;13.27;;;;;;;8.99;50.89;100059.44;5050864;28;20171;-37
2022/04/13 03:35:06;;;;;;;19.40;11.32;;;;;;;9.00;51.08;100058.44;5051036;28;20079;-37
2022/04/13 03:37:31;;;;;;;15.25;9.82;;;;;;;8.82;50.96;100070.44;5050772;28;20025;-37
2022/04/13 03:39:57;;;;;;;14.18;8.00;;;;;;;8.59;51.28;100076.66;5050832;28;20024;-37
2022/04/13 03:42:22;;;;;;;14.00;7.70;;;;;;;8.42;52.56;100078.66;5050498;28;20013;-37
2022/04/13 03:44:48;;;;;;;13.60;7.55;;;;;;;8.52;52.13;100078.38;5051527;28;20031;-43
2022/04/13 03:47:13;;;;;;;15.30;7.75;;;;;;;8.58;51.75;100081.13;5051460;28;20449;-36
2022/04/13 03:49:38;;;;;;;12.75;7.50;;;;;;;8.61;51.75;100078.09;5050551;28;20021;-37
2022/04/13 03:52:04;;;;;;;12.65;7.40;;;;;;;8.66;51.63;100079.38;5050258;28;20036;-37
2022/04/13 03:54:30;;;;;;;17.17;8.05;;;;;;;8.65;51.79;100077.75;5049947;28;20020;-37
2022/04/13 03:56:55;;;;;;;14.35;7.82;;;;;;;8.47;52.14;100078.09;5049987;28;20612;-38
2022/04/13 03:59:22;;;;;;;13.55;7.80;;;;;;;8.37;52.16;100091.59;5050074;28;20021;-36
2022/04/13 04:01:48;;;;;;;12.45;7.43;;;;;;;8.26;52.30;100095.50;5051459;28;20021;-41
2022/04/13 04:04:13;;;;;;;11.70;6.90;;;;;;;8.54;51.87;100098.41;5050814;28;20027;-43
2022/04/13 04:06:39;;;;;;;12.10;7.78;;;;;;;8.56;51.87;100088.44;5050649;28;20033;-36
2022/04/13 04:09:04;;;;;;;15.48;8.98;;;;;;;8.68;52.31;100093.28;5050361;28;20529;-37
2022/04/13 04:11:31;;;;;;;36.40;20.92;;;;;;;8.93;51.93;100102.66;5050124;28;20049;-37
2022/04/13 04:13:56;;;;;;;23.40;12.57;;;;;;;9.31;50.78;100101.66;5049786;28;20029;-37
2022/04/13 04:16:22;;;;;;;16.08;8.98;;;;;;;9.50;50.20;100106.41;5049772;28;20021;-37
2022/04/13 04:18:50;;;;;;;14.93;8.63;;;;;;;9.39;50.49;100105.03;5049578;28;20044;-37
2022/04/13 04:21:15;;;;;;;13.27;8.45;;;;;;;9.73;49.69;100110.72;5049958;28;20080;-37
2022/04/13 04:23:41;;;;;;;19.35;8.98;;;;;;;10.01;48.79;100116.09;5049548;28;20440;-35
2022/04/13 04:26:07;;;;;;;17.50;9.52;;;;;;;10.28;49.96;100125.16;5041949;28;20017;-36
2022/04/13 04:28:33;;;;;;;19.58;9.70;;;;;;;10.12;49.45;100128.06;5048754;28;20449;-38
2022/04/13 04:30:58;;;;;;;24.75;10.18;;;;;;;10.60;47.87;100133.59;5049816;28;20119;-37
2022/04/13 04:33:24;;;;;;;14.98;8.82;;;;;;;10.52;47.25;100123.91;5049455;28;20040;-38
2022/04/13 04:35:51;;;;;;;15.63;7.75;;;;;;;10.67;46.98;100131.81;5049090;28;20025;-36
2022/04/13 04:38:17;;;;;;;14.32;8.55;;;;;;;10.79;47.23;100131.25;5049254;28;20090;-37
2022/04/13 04:40:43;;;;;;;17.15;9.10;;;;;;;10.75;46.32;100138.81;5049111;28;20110;-37
2022/04/13 04:43:08;;;;;;;34.83;17.17;;;;;;;11.05;45.97;100134.06;5048230;28;20459;-38
2022/04/13 04:45:34;;;;;;;25.70;14.57;;;;;;;11.65;44.91;100136.16;5047067;28;20504;-47
2022/04/13 04:48:04;;;;;;;15.70;8.73;;;;;;;11.72;44.07;100142.31;5046823;28;20083;-50
2022/04/13 04:50:31;;;;;;;15.90;8.57;;;;;;;12.36;43.48;100145.53;5049383;28;20033;-49
2022/04/13 04:52:56;;;;;;;15.77;8.77;;;;;;;12.71;42.25;100146.13;5050483;28;20024;-48
2022/04/13 04:55:22;;;;;;;17.67;8.50;;;;;;;12.98;41.65;100141.53;5049939;28;20047;-50
2022/04/13 04:57:49;;;;;;;17.02;8.07;;;;;;;13.47;41.02;100144.69;5050042;28;20032;-52
2022/04/13 05:00:20;;;;;;;11.60;8.15;;;;;;;13.81;39.67;100148.03;5050660;28;20120;-51
2022/04/13 05:02:49;;;;;;;14.52;8.25;;;;;;;14.01;39.25;100161.28;5051058;28;20033;-50
2022/04/13 05:05:15;;;;;;;;;;;;;;;14.53;38.40;100161.94;5052249;28;20040;-51
2022/04/13 05:07:41;;;;;;;17.80;8.25;;;;;;;14.69;39.58;100162.44;5051785;28;19917;-51
2022/04/13 05:10:08;;;;;;;15.48;8.13;;;;;;;14.77;40.48;100162.97;5053065;28;20049;-48
2022/04/13 05:12:45;;;;;;;17.30;7.53;;;;;;;15.25;38.44;100159.59;5053142;28;20477;-51
2022/04/13 05:15:12;;;;;;;20.95;11.70;;;;;;;15.95;36.28;100152.91;5052893;28;20025;-48
2022/04/13 05:17:37;;;;;;;36.90;20.42;;;;;;;16.38;35.49;100146.47;5053092;28;20046;-51
2022/04/13 05:20:05;;;;;;;22.77;9.45;;;;;;;14.99;38.50;100157.19;5053028;28;20188;-49
2022/04/13 05:22:30;;;;;;;17.90;8.90;;;;;;;15.81;36.96;100151.47;5052853;28;20454;-51
2022/04/13 05:25:02;;;;;;;21.20;9.25;;;;;;;15.76;36.55;100152.19;5051940;28;20029;-52
2022/04/13 05:27:27;;;;;;;19.40;8.00;;;;;;;15.61;36.54;100149.03;5053212;28;20028;-50
2022/04/13 05:29:53;;;;;;;18.33;9.90;;;;;;;16.51;35.57;100150.00;5053231;28;20101;-49
2022/04/13 05:32:18;;;;;;;14.32;6.57;;;;;;;16.83;34.44;100160.41;5052868;28;20118;-48
2022/04/13 05:34:43;;;;;;;24.35;14.50;;;;;;;17.55;32.77;100158.19;5052498;28;20021;-50
2022/04/13 05:37:09;;;;;;;15.82;8.73;;;;;;;17.80;31.63;100167.81;5053016;28;20032;-53
2022/04/13 05:39:38;;;;;;;11.63;4.82;;;;;;;17.42;32.55;100161.16;5052514;28;20082;-48
2022/04/13 05:42:04;;;;;;;31.77;17.23;;;;;;;18.17;30.96;100159.34;5052663;28;20052;-49
2022/04/13 05:44:29;;;;;;;12.50;6.75;;;;;;;18.55;30.48;100163.19;5052340;28;20051;-47
2022/04/13 05:46:54;;;;;;;8.20;4.60;;;;;;;18.53;30.03;100162.63;5052594;28;20029;-51
2022/04/13 05:49:20;;;;;;;7.40;4.20;;;;;;;18.74;29.94;100169.13;5053029;28;20041;-49
2022/04/13 05:51:45;;;;;;;11.80;4.60;;;;;;;19.14;29.48;100166.22;5052610;28;20025;-51
2022/04/13 05:54:11;;;;;;;8.65;4.07;;;;;;;19.56;28.72;100167.53;5052534;28;20033;-50
2022/04/13 05:56:36;;;;;;;8.75;4.20;;;;;;;19.83;28.01;100167.56;5052299;28;20350;-51
2022/04/13 05:59:02;;;;;;;9.25;5.38;;;;;;;19.64;27.58;100171.66;5052462;28;20079;-49
2022/04/13 06:01:27;;;;;;;13.00;7.35;;;;;;;19.49;28.43;100178.50;5051523;28;20468;-51
2022/04/13 06:03:53;;;;;;;6.70;4.25;;;;;;;19.11;29.29;100174.81;5052406;28;20028;-50
2022/04/13 06:06:18;;;;;;;7.20;4.30;;;;;;;19.19;29.11;100180.81;5052121;28;20025;-51
2022/04/13 06:08:44;;;;;;;6.95;4.40;;;;;;;19.36;28.74;100178.06;5051882;28;20046;-48
2022/04/13 06:11:09;;;;;;;8.52;4.30;;;;;;;19.76;27.75;100176.94;5051793;28;20029;-49
2022/04/13 06:13:35;;;;;;;7.45;4.30;;;;;;;19.73;27.81;100180.97;5052401;28;20086;-50
2022/04/13 06:16:00;;;;;;;6.63;4.40;;;;;;;19.80;28.15;100186.16;5052123;28;20496;-47
2022/04/13 06:18:26;;;;;;;6.07;4.18;;;;;;;20.71;27.00;100174.56;5051954;28;20035;-50
2022/04/13 06:20:51;;;;;;;6.78;3.90;;;;;;;21.20;26.15;100182.41;5051421;28;20033;-48
2022/04/13 06:23:18;;;;;;;6.80;3.45;;;;;;;20.98;25.52;100185.28;5052038;28;20025;-51
2022/04/13 06:25:44;;;;;;;5.40;4.20;;;;;;;21.20;25.69;100181.63;5052048;28;20025;-49
2022/04/13 06:28:09;;;;;;;10.60;6.78;;;;;;;21.05;26.19;100185.06;5051888;28;20021;-48
2022/04/13 06:30:34;;;;;;;11.93;6.28;;;;;;;21.47;25.65;100190.41;5051810;28;20461;-50
2022/04/13 06:33:00;;;;;;;4.82;3.70;;;;;;;21.36;25.69;100174.38;5051474;28;20055;-51
2022/04/13 06:35:26;;;;;;;7.78;3.58;;;;;;;21.85;25.06;100174.00;5051490;28;20090;-48
2022/04/13 06:37:51;;;;;;;6.45;3.67;;;;;;;21.88;25.21;100183.50;5051073;28;20029;-49
2022/04/13 06:40:17;;;;;;;10.80;4.22;;;;;;;21.86;24.95;100181.88;5051590;28;20171;-51
2022/04/13 06:42:43;;;;;;;6.50;3.45;;;;;;;22.43;24.34;100182.78;5051549;28;20473;-51
2022/04/13 06:45:11;;;;;;;6.22;3.58;;;;;;;22.87;23.78;100189.50;5051189;28;20064;-49
2022/04/13 06:47:40;;;;;;;8.48;4.32;;;;;;;22.81;23.23;100186.00;5051428;28;20025;-51
2022/04/13 06:50:07;;;;;;;6.20;3.95;;;;;;;23.17;23.31;100195.97;5051181;28;20420;-49
2022/04/13 06:52:36;;;;;;;4.20;3.30;;;;;;;23.12;23.62;100196.00;5051273;28;20033;-49
2022/04/13 06:55:03;;;;;;;5.03;3.25;;;;;;;23.54;23.13;100181.97;5050501;28;20032;-48
2022/04/13 06:57:28;;;;;;;8.20;3.70;;;;;;;22.98;23.73;100184.84;5051294;28;20032;-46
2022/04/13 06:59:54;;;;;;;12.63;3.53;;;;;;;22.83;23.93;100191.16;5051092;28;20036;-48
2022/04/13 07:02:19;;;;;;;6.93;3.53;;;;;;;23.38;23.21;100193.97;5051390;28;20032;-47
2022/04/13 07:04:45;;;;;;;4.95;3.50;;;;;;;23.81;22.46;100186.22;5050556;28;20456;-47
2022/04/13 07:07:10;;;;;;;5.45;3.75;;;;;;;23.64;22.86;100180.31;5051092;28;20032;-50
2022/04/13 07:09:36;;;;;;;5.32;3.70;;;;;;;23.09;22.92;100193.81;5049999;28;20049;-47
2022/04/13 07:12:02;;;;;;;7.85;3.95;;;;;;;23.57;23.13;100186.84;5050946;28;20476;-48
2022/04/13 07:14:27;;;;;;;7.30;3.72;;;;;;;23.87;22.60;100187.78;5049743;28;20037;-47
2022/04/13 07:16:52;;;;;;;8.45;3.70;;;;;;;23.16;23.47;100187.00;5051366;28;20025;-48
2022/04/13 07:19:18;;;;;;;5.85;3.47;;;;;;;23.90;22.89;100195.41;5050830;28;20025;-49
2022/04/13 07:21:43;;;;;;;6.43;3.60;;;;;;;23.08;23.67;100192.22;5050979;28;20025;-49
2022/04/13 07:24:10;;;;;;;6.35;3.40;;;;;;;22.41;24.42;100189.56;5050716;28;20484;-48
2022/04/13 07:26:36;;;;;;;6.90;3.35;;;;;;;22.58;24.51;100190.09;5049854;28;20052;-47
2022/04/13 07:29:02;;;;;;;3.88;3.30;;;;;;;22.99;23.56;100191.91;5050318;28;20382;-48
2022/04/13 07:31:27;;;;;;;6.22;3.30;;;;;;;23.29;23.09;100190.25;5050593;28;20047;-49
2022/04/13 07:33:53;;;;;;;5.25;3.15;;;;;;;23.72;22.66;100196.84;5050745;28;20029;-50
2022/04/13 07:36:18;;;;;;;5.07;3.20;;;;;;;24.22;22.29;100194.09;5050308;28;20337;-50
2022/04/13 07:38:43;;;;;;;8.18;3.33;;;;;;;24.84;21.77;100194.38;5050243;28;20028;-48
2022/04/13 07:41:09;;;;;;;7.70;3.20;;;;;;;24.87;21.07;100187.56;5050127;28;20028;-49
2022/04/13 07:43:34;;;;;;;6.03;3.88;;;;;;;25.59;20.49;100186.75;5050262;28;20025;-51
2022/04/13 07:46:00;;;;;;;9.50;5.93;;;;;;;25.29;20.69;100184.13;5050105;28;20020;-50
2022/04/13 07:48:25;;;;;;;8.35;4.20;;;;;;;25.29;20.54;100180.59;5049804;28;20108;-50
2022/04/13 07:50:51;;;;;;;5.50;3.58;;;;;;;25.74;20.27;100192.81;5047609;28;20025;-50
2022/04/13 07:53:16;;;;;;;5.57;3.40;;;;;;;25.59;20.04;100184.84;5049795;28;20039;-49
2022/04/13 07:55:42;;;;;;;5.78;3.47;;;;;;;25.25;20.40;100179.56;5048721;28;20029;-51
2022/04/13 07:58:07;;;;;;;6.47;3.78;;;;;;;25.01;20.62;100174.88;5048188;28;20044;-51
2022/04/13 08:00:33;;;;;;;6.25;3.72;;;;;;;25.18;20.54;100177.16;5049048;28;20033;-49
2022/04/13 08:02:59;;;;;;;6.05;3.47;;;;;;;25.69;19.88;100175.72;5049551;28;20025;-48
2022/04/13 08:05:25;;;;;;;7.18;3.78;;;;;;;25.43;20.55;100175.25;5048638;28;20313;-52
2022/04/13 08:07:51;;;;;;;9.93;3.95;;;;;;;25.36;20.49;100181.88;5047961;28;20128;-47
2022/04/13 08:10:16;;;;;;;7.88;4.05;;;;;;;25.26;19.77;100171.06;5046790;28;20063;-52
2022/04/13 08:12:42;;;;;;;4.65;3.38;;;;;;;25.91;19.44;100170.53;5049080;28;20116;-48
2022/04/13 08:15:10;;;;;;;4.05;3.00;;;;;;;25.61;19.24;100174.47;5049919;28;20417;-50
2022/04/13 08:17:38;;;;;;;4.03;3.20;;;;;;;25.44;20.13;100168.69;5050703;28;20033;-51
2022/04/13 08:20:06;;;;;;;8.77;3.50;;;;;;;26.34;19.67;100177.75;5050077;28;20053;-50
2022/04/13 08:22:31;;;;;;;3.70;3.28;;;;;;;26.46;18.89;100169.09;5050037;28;20077;-51
2022/04/13 08:24:57;;;;;;;6.63;3.70;;;;;;;25.63;19.00;100164.06;5051777;28;20025;-50
2022/04/13 08:27:22;;;;;;;5.05;3.50;;;;;;;25.71;18.96;100168.06;5054155;28;20495;-51
2022/04/13 08:29:48;;;;;;;6.50;3.40;;;;;;;25.13;19.28;100163.56;5054210;28;20017;-51
2022/04/13 08:32:18;;;;;;;7.63;3.42;;;;;;;25.23;19.19;100162.69;5054260;28;20326;-52
2022/04/13 08:34:44;;;;;;;5.72;3.50;;;;;;;25.01;19.65;100155.81;5053795;28;20452;-49
2022/04/13 08:37:10;;;;;;;6.43;3.50;;;;;;;25.72;18.99;100156.03;5051910;28;20445;-49
2022/04/13 08:39:36;;;;;;;6.22;3.63;;;;;;;25.43;19.37;100153.44;5052163;28;20044;-49
2022/04/13 08:42:13;;;;;;;9.45;4.10;;;;;;;25.65;19.18;100153.69;5051519;28;20078;-50
2022/04/13 08:44:52;;;;;;;7.05;3.90;;;;;;;23.42;20.40;100151.63;5051237;28;20025;-48
2022/04/13 08:47:22;;;;;;;17.85;11.00;;;;;;;22.34;21.26;100148.34;5052120;28;20086;-51
2022/04/13 08:49:51;;;;;;;7.63;4.82;;;;;;;22.14;21.68;100147.25;5050568;28;20021;-48
2022/04/13 08:52:30;;;;;;;5.63;3.93;;;;;;;21.92;22.06;100133.13;5051312;28;20500;-49
2022/04/13 08:54:58;;;;;;;7.88;3.78;;;;;;;22.61;22.25;100137.19;5051806;28;20068;-50
2022/04/13 08:57:27;;;;;;;11.18;4.15;;;;;;;23.13;21.65;100137.88;5051963;28;20032;-51
2022/04/13 09:00:15;;;;;;;4.97;3.97;;;;;;;23.95;20.81;100126.59;5051802;28;20487;-51
2022/04/13 09:03:13;;;;;;;6.43;3.90;;;;;;;24.52;19.86;100125.06;5052093;28;20032;-50
2022/04/13 09:05:40;;;;;;;8.23;3.80;;;;;;;24.26;20.54;100126.38;5035982;28;20109;-52
2022/04/13 09:08:14;;;;;;;6.70;4.15;;;;;;;24.08;20.98;100115.06;5052921;28;20420;-47
2022/04/13 09:10:41;;;;;;;5.53;3.70;;;;;;;25.34;19.54;100115.16;5053150;28;20040;-51
2022/04/13 09:13:10;;;;;;;8.32;4.00;;;;;;;25.69;18.35;100108.38;5052836;28;20090;-52
2022/04/13 09:15:40;;;;;;;21.00;16.73;;;;;;;25.03;19.54;100098.38;5052623;28;20082;-50
2022/04/13 09:18:08;;;;;;;44.67;26.50;;;;;;;24.87;19.45;100105.94;5053114;28;20417;-51
2022/04/13 09:20:34;;;;;;;8.15;4.50;;;;;;;23.19;21.37;100096.09;5052998;28;20052;-51
2022/04/13 09:23:00;;;;;;;6.20;3.92;;;;;;;24.23;20.42;100095.09;5052608;28;20024;-52
2022/04/13 09:25:29;;;;;;;7.22;3.90;;;;;;;25.03;19.86;100095.66;5051830;28;20025;-49
2022/04/13 09:27:56;;;;;;;5.55;3.90;;;;;;;25.61;19.09;100084.53;5053098;28;20033;-52
2022/04/13 09:30:22;;;;;;;7.18;4.20;;;;;;;25.90;18.26;100081.63;5052651;28;20025;-50
2022/04/13 09:32:50;;;;;;;6.57;4.30;;;;;;;25.31;18.99;100083.06;5053001;28;20059;-51
2022/04/13 09:35:16;;;;;;;7.00;4.30;;;;;;;25.17;19.69;100081.03;5052212;28;20029;-49
2022/04/13 09:37:43;;;;;;;5.38;4.00;;;;;;;24.35;19.97;100073.78;5051567;28;20531;-52
2022/04/13 09:40:09;;;;;;;7.22;4.30;;;;;;;24.07;20.16;100069.97;5052502;28;20048;-48
2022/04/13 09:42:36;;;;;;;7.88;4.10;;;;;;;24.20;20.41;100072.03;5052493;28;20052;-49
2022/04/13 09:45:02;;;;;;;6.55;4.25;;;;;;;24.20;20.48;100065.78;5051872;28;20025;-48
2022/04/13 09:47:33;;;;;;;5.10;3.65;;;;;;;24.97;20.14;100067.69;5051992;28;20044;-50
2022/04/13 09:49:59;;;;;;;4.47;3.50;;;;;;;24.37;20.41;100059.91;5052669;28;20017;-50
2022/04/13 09:52:32;;;;;;;8.05;3.72;;;;;;;25.15;19.47;100064.19;5052559;28;20021;-50
2022/04/13 09:54:58;;;;;;;7.00;3.83;;;;;;;25.02;19.29;100053.19;5052069;28;20024;-49
2022/04/13 09:57:25;;;;;;;7.03;3.85;;;;;;;23.98;20.15;100058.09;5052092;28;20493;-48
2022/04/13 09:59:59;;;;;;;6.95;3.50;;;;;;;23.58;20.84;100062.72;5052075;28;20404;-51
2022/04/13 10:02:40;;;;;;;4.28;3.08;;;;;;;23.62;20.68;100053.72;5052595;28;20025;-50
2022/04/13 10:05:09;;;;;;;3.40;2.80;;;;;;;24.31;19.88;100051.00;5052041;28;20354;-48
2022/04/13 10:07:35;;;;;;;4.47;3.03;;;;;;;25.58;18.64;100057.06;5051692;28;20111;-47
2022/04/13 10:10:01;;;;;;;5.30;3.22;;;;;;;25.41;18.28;100041.25;5051718;28;20101;-50
2022/04/13 10:12:27;;;;;;;4.20;2.80;;;;;;;23.74;19.24;100049.81;5052200;28;20029;-49
2022/04/13 10:14:52;;;;;;;5.10;2.83;;;;;;;23.39;19.93;100051.72;5051959;28;20445;-48
2022/04/13 10:17:20;;;;;;;4.95;3.20;;;;;;;23.48;19.72;100039.16;5051987;28;20025;-47
2022/04/13 10:19:54;;;;;;;7.32;3.05;;;;;;;23.11;20.00;100047.78;5052059;28;20070;-47
2022/04/13 10:22:19;;;;;;;4.65;2.85;;;;;;;24.06;19.26;100035.72;5052172;28;20459;-47
2022/04/13 10:24:45;;;;;;;6.32;2.80;;;;;;;24.05;18.80;100031.41;5051680;28;20021;-50
2022/04/13 10:27:17;;;;;;;11.48;3.20;;;;;;;22.83;20.25;100039.22;5051382;28;20083;-49
2022/04/13 10:29:44;;;;;;;4.47;3.33;;;;;;;21.92;21.19;100035.59;5051732;28;20417;-51
2022/04/13 10:32:14;;;;;;;7.97;3.70;;;;;;;22.42;20.92;100033.91;5051715;28;20021;-48
2022/04/13 10:34:43;;;;;;;6.18;3.25;;;;;;;23.66;19.83;100029.50;5051889;28;20028;-49
2022/04/13 10:37:13;;;;;;;5.80;3.35;;;;;;;24.30;19.86;100027.63;5051687;28;20122;-49
2022/04/13 10:39:41;;;;;;;5.43;3.33;;;;;;;24.73;19.35;100018.72;5051447;28;20102;-48
2022/04/13 10:42:12;;;;;;;7.72;3.47;;;;;;;24.46;19.91;100025.53;5051480;28;20033;-49
2022/04/13 10:44:41;;;;;;;5.05;3.33;;;;;;;25.29;19.10;100018.00;5051326;28;20017;-48
2022/04/13 10:47:09;;;;;;;6.22;3.30;;;;;;;25.56;18.74;100003.69;5051474;28;20123;-50
2022/04/13 10:49:47;;;;;;;6.00;3.65;;;;;;;25.97;18.89;100017.75;5050502;28;20029;-48
2022/04/13 10:52:43;;;;;;;10.05;3.35;;;;;;;26.87;17.88;100010.84;5051730;28;20029;-48
2022/04/13 10:55:14;;;;;;;7.10;3.58;;;;;;;27.17;17.05;100013.19;5050847;28;20045;-48
2022/04/13 10:57:54;;;;;;;4.85;3.13;;;;;;;25.40;17.51;100006.94;5051417;28;20032;-49
2022/04/13 11:00:21;;;;;;;5.90;2.83;;;;;;;25.12;19.10;100006.78;5050935;28;20400;-49
2022/04/13 11:03:03;;;;;;;5.28;2.90;;;;;;;25.57;17.92;100001.78;5051105;28;20107;-48
2022/04/13 11:05:30;;;;;;;4.00;2.75;;;;;;;24.53;18.68;99998.03;5050635;28;20165;-50
2022/04/13 11:08:14;;;;;;;5.53;2.88;;;;;;;25.86;18.05;99996.09;5050786;28;20152;-48
2022/04/13 11:10:42;;;;;;;4.75;2.80;;;;;;;26.49;17.01;100000.13;5050626;28;20484;-48
2022/04/13 11:13:08;;;;;;;6.38;3.08;;;;;;;27.06;16.65;99990.78;5050940;28;20025;-48
2022/04/13 11:15:40;;;;;;;7.03;2.90;;;;;;;27.85;16.35;99990.28;5050282;28;20532;-49
2022/04/13 11:18:16;;;;;;;5.40;3.15;;;;;;;27.64;15.88;99989.16;5050953;28;20037;-51
2022/04/13 11:21:08;;;;;;;4.97;2.92;;;;;;;27.47;16.40;99981.66;5050603;28;20533;-49
2022/04/13 11:23:48;;;;;;;4.15;2.83;;;;;;;26.44;16.65;99980.34;5048629;28;20524;-49